Terminal Aerodrome Forecast
Issued by NWS Kansas City/Pleasant Hill, MO

Home | Current Version | Previous Version | Text Only | Print | Product List | Glossary On
Versions: 1 2 3 4 5 6 7 8 9 10 11 12 13 14 15 16 17 18 19 20 21 22 23 24 25 26
000
FTUS43 KEAX 241027 AAA
TAFMCI
TAF AMD
KMCI 241027Z 2410/2506 17008KT P6SM BKN024
     FM241100 30012KT 4SM -TSRA OVC022CB
     FM241400 17009KT P6SM -SHRA VCTS OVC025CB
     FM241800 18010KT P6SM BKN050=

USA.gov is the U.S. government's official web portal to all federal, state and local government web resources and services.